Time;durP1;ratioP1;P1;durP2;ratioP2;P2;SDS_P1;SDS_P2;PMS_P1;PMS_P2;Temp;Humidity;BMP_temperature;BMP_pressure;BME280_temperature;BME280_humidity;BME280_pressure;Samples;Min_cycle;Max_cycle;Signal;HPM_P1;HPM_P2
2022/11/11 00:00:35;;;;;;;15.68;8.27;;;6.90;1.00;;;;;;5069658;28;20386;-49
2022/11/11 00:03:01;;;;;;;16.15;7.43;;;8.60;1.00;;;;;;5070345;28;20424;-48
2022/11/11 00:05:27;;;;;;;16.58;8.10;;;6.90;1.00;;;;;;5069584;28;20376;-51
2022/11/11 00:07:58;;;;;;;15.73;8.27;;;8.50;1.00;;;;;;5070628;28;20425;-49
2022/11/11 00:10:28;;;;;;;15.20;7.40;;;6.80;1.00;;;;;;5070097;28;20383;-48
2022/11/11 00:12:56;;;;;;;19.30;7.70;;;6.70;1.00;;;;;;5070560;28;20376;-49
2022/11/11 00:15:22;;;;;;;17.73;8.43;;;7.60;1.00;;;;;;5069604;28;20734;-52
2022/11/11 00:26:06;;;;;;;16.27;7.30;;;7.60;20.60;;;;;;5069975;28;20375;-48
2022/11/11 00:28:32;;;;;;;15.70;7.47;;;7.00;1.00;;;;;;5069259;28;20371;-49
2022/11/11 00:31:05;;;;;;;15.10;7.00;;;6.90;1.00;;;;;;5069706;28;20387;-49
2022/11/11 00:33:31;;;;;;;17.97;8.10;;;6.80;1.00;;;;;;5068957;28;20458;-49
2022/11/11 00:35:57;;;;;;;17.63;6.85;;;6.80;1.00;;;;;;5069680;28;20380;-49
2022/11/11 00:41:07;;;;;;;14.70;7.80;;;6.90;1.00;;;;;;5069978;28;20379;-49
2022/11/11 00:43:32;;;;;;;16.40;8.00;;;7.00;1.00;;;;;;5069281;28;20408;-48
2022/11/11 00:51:27;;;;;;;16.35;7.78;;;7.90;1.00;;;;;;5069018;28;20848;-55
2022/11/11 00:53:53;;;;;;;15.55;8.20;;;6.60;1.00;;;;;;5069479;28;20463;-49
2022/11/11 00:56:20;;;;;;;15.20;7.50;;;6.70;1.00;;;;;;5069615;28;20479;-49
2022/11/11 00:58:46;;;;;;;15.80;7.50;;;7.30;40.30;;;;;;5069468;28;20376;-49
2022/11/11 01:01:11;;;;;;;15.07;7.85;;;6.80;69.10;;;;;;5069861;28;20380;-49
2022/11/11 01:03:37;;;;;;;14.60;7.63;;;6.90;73.80;;;;;;5068400;28;20427;-49
2022/11/11 01:06:04;;;;;;;16.27;8.27;;;7.00;56.60;;;;;;5069932;28;20383;-48
2022/11/11 01:08:31;;;;;;;14.17;8.07;;;7.10;45.70;;;;;;5069030;28;20383;-48
2022/11/11 01:10:57;;;;;;;17.63;8.55;;;7.10;18.60;;;;;;5069660;28;20462;-49
2022/11/11 01:13:26;;;;;;;16.95;8.43;;;7.00;1.00;;;;;;5069730;28;20462;-49
2022/11/11 01:15:58;;;;;;;15.03;7.50;;;7.00;1.00;;;;;;5069215;28;20380;-49
2022/11/11 01:18:25;;;;;;;14.18;7.68;;;6.90;7.70;;;;;;5069478;28;20775;-48
2022/11/11 01:21:04;;;;;;;15.20;7.25;;;7.80;13.50;;;;;;5069389;28;20381;-48
2022/11/11 01:23:32;;;;;;;15.05;8.10;;;6.90;42.60;;;;;;5068365;28;20411;-48
2022/11/11 01:26:18;;;;;;;16.45;7.80;;;6.90;85.10;;;;;;5069492;28;20474;-49
2022/11/11 01:28:47;;;;;;;17.10;7.70;;;7.00;96.40;;;;;;5068654;28;20471;-48
2022/11/11 01:31:14;;;;;;;15.85;8.00;;;7.00;99.90;;;;;;5069831;28;20433;-49
2022/11/11 01:33:40;;;;;;;14.05;7.45;;;7.10;99.90;;;;;;5069127;28;20853;-49
2022/11/11 01:36:16;;;;;;;16.30;8.25;;;7.00;90.90;;;;;;5069861;28;20378;-48
2022/11/11 01:38:42;;;;;;;13.73;7.43;;;7.00;75.30;;;;;;5069276;28;20376;-48
2022/11/11 01:43:59;;;;;;;14.55;7.43;;;7.00;94.60;;;;;;5073118;28;20745;-49
2022/11/11 01:46:31;;;;;;;13.47;7.23;;;7.00;92.80;;;;;;5072688;28;20425;-55
2022/11/11 01:49:17;;;;;;;19.13;8.48;;;7.50;71.00;;;;;;5072537;28;20449;-49
2022/11/11 01:51:49;;;;;;;14.82;7.57;;;7.50;97.90;;;;;;5055383;28;20379;-48
2022/11/11 01:54:21;;;;;;;12.02;6.47;;;7.10;79.70;;;;;;5072291;28;20387;-49
2022/11/11 01:56:50;;;;;;;16.63;7.93;;;8.70;85.20;;;;;;5072497;28;20368;-48
2022/11/11 01:59:17;;;;;;;17.10;8.03;;;6.90;87.20;;;;;;5073045;28;20459;-49
2022/11/11 02:01:43;;;;;;;19.10;8.23;;;6.80;99.90;;;;;;5071236;28;20479;-48
2022/11/11 02:06:58;;;;;;;16.40;8.23;;;6.80;99.90;;;;;;5072761;28;20991;-49
2022/11/11 02:09:24;;;;;;;15.75;7.90;;;6.80;99.90;;;;;;5072241;28;20388;-48
2022/11/11 02:14:43;;;;;;;14.73;8.02;;;7.00;99.90;;;;;;5072271;28;20387;-48
2022/11/11 02:17:15;;;;;;;15.82;8.50;;;6.60;99.90;;;;;;5071898;28;20383;-49
2022/11/11 02:19:42;;;;;;;15.98;8.15;;;6.60;99.90;;;;;;5072006;28;20880;-48
2022/11/11 02:22:15;;;;;;;19.08;8.65;;;8.00;99.90;;;;;;5072432;28;20387;-48
2022/11/11 02:24:41;;;;;;;16.63;8.80;;;6.60;99.90;;;;;;5071545;28;20726;-48
2022/11/11 02:27:11;;;;;;;16.48;7.85;;;6.60;99.90;;;;;;5072058;28;20471;-49
2022/11/11 02:29:38;;;;;;;15.03;7.70;;;6.60;99.90;;;;;;5071927;28;20709;-48
2022/11/11 02:32:04;;;;;;;16.77;8.60;;;8.20;99.90;;;;;;5071896;28;20411;-48
2022/11/11 02:34:31;;;;;;;14.07;7.70;;;6.60;99.90;;;;;;5070777;28;20802;-55
2022/11/11 02:36:58;;;;;;;16.67;8.95;;;6.50;99.90;;;;;;5071462;28;20376;-49
2022/11/11 02:39:25;;;;;;;14.75;7.82;;;6.60;99.90;;;;;;5071736;28;20384;-49
2022/11/11 02:41:57;;;;;;;15.40;8.13;;;6.50;99.90;;;;;;5071046;28;20471;-48
2022/11/11 02:44:24;;;;;;;17.43;8.97;;;6.50;99.90;;;;;;5072118;28;20865;-48
2022/11/11 02:46:50;;;;;;;15.27;8.43;;;6.40;99.90;;;;;;5071202;28;20851;-48
2022/11/11 02:49:16;;;;;;;16.00;7.70;;;6.50;99.90;;;;;;5071626;28;20371;-48
2022/11/11 02:51:42;;;;;;;14.70;7.40;;;6.90;99.90;;;;;;5071479;28;20401;-49
2022/11/11 02:54:07;;;;;;;19.25;7.50;;;6.70;99.90;;;;;;5072006;28;20891;-49
2022/11/11 02:59:17;;;;;;;14.77;7.90;;;7.40;57.30;;;;;;5071226;28;20383;-48
2022/11/11 03:01:43;;;;;;;15.93;7.45;;;6.60;46.60;;;;;;5071522;28;20897;-48
2022/11/11 03:04:10;;;;;;;15.25;8.50;;;6.60;51.40;;;;;;5070806;28;20893;-48
2022/11/11 03:06:35;;;;;;;16.10;7.65;;;6.50;58.60;;;;;;5070159;28;20399;-48
2022/11/11 03:09:01;;;;;;;17.67;7.60;;;6.60;78.70;;;;;;5071893;28;20390;-48
2022/11/11 03:11:27;;;;;;;16.07;7.93;;;6.60;44.70;;;;;;5070974;28;20419;-55
2022/11/11 03:13:56;;;;;;;17.83;8.18;;;8.00;45.80;;;;;;5070818;28;20956;-48
2022/11/11 03:19:07;;;;;;;13.93;7.70;;;6.40;57.10;;;;;;5071291;28;20423;-48
2022/11/11 03:21:32;;;;;;;16.80;9.20;;;6.30;99.90;;;;;;5070224;28;20411;-49
2022/11/11 03:23:58;;;;;;;24.60;9.40;;;6.20;99.90;;;;;;5071006;28;20738;-50
2022/11/11 03:26:23;;;;;;;17.03;8.30;;;8.00;99.90;;;;;;5071214;28;20460;-48
2022/11/11 03:28:49;;;;;;;14.73;8.30;;;6.10;99.90;;;;;;5070297;28;20467;-51
2022/11/11 03:31:15;;;;;;;16.93;8.90;;;6.10;99.90;;;;;;5070646;28;20388;-51
2022/11/11 03:33:41;;;;;;;16.27;8.18;;;6.10;99.90;;;;;;5069974;28;20828;-51
2022/11/11 03:36:06;;;;;;;16.88;8.85;;;6.90;99.90;;;;;;5071015;28;20407;-51
2022/11/11 03:38:32;;;;;;;20.92;9.95;;;6.10;99.90;;;;;;5069939;28;20414;-51
2022/11/11 03:40:58;;;;;;;17.10;8.93;;;6.60;99.90;;;;;;5070754;28;20392;-51
2022/11/11 03:43:26;;;;;;;15.85;8.57;;;6.10;99.90;;;;;;5070473;28;20893;-48
2022/11/11 03:45:53;;;;;;;16.47;9.07;;;6.10;99.90;;;;;;5070146;28;20379;-49
2022/11/11 03:48:19;;;;;;;18.90;8.82;;;7.90;99.90;;;;;;5070548;28;20376;-48
2022/11/11 03:50:49;;;;;;;18.90;8.93;;;6.20;99.90;;;;;;5069877;28;20398;-48
2022/11/11 03:53:16;;;;;;;20.30;10.03;;;7.90;99.90;;;;;;5070585;28;20376;-48
2022/11/11 03:55:42;;;;;;;18.52;9.40;;;6.10;99.90;;;;;;5069719;28;20380;-48
2022/11/11 03:58:08;;;;;;;17.05;8.48;;;6.10;99.90;;;;;;5070097;28;20372;-49
2022/11/11 04:00:34;;;;;;;19.25;10.32;;;8.00;99.90;;;;;;5069605;28;20931;-49
2022/11/11 04:11:41;;;;;;;21.48;10.55;;;6.20;99.90;;;;;;5069208;28;20444;-49
2022/11/11 04:16:56;;;;;;;15.95;9.00;;;6.20;99.90;;;;;;5069970;28;20382;-49
2022/11/11 04:22:07;;;;;;;19.60;10.25;;;6.10;99.90;;;;;;5070249;28;20959;-49
2022/11/11 04:27:30;;;;;;;20.30;9.50;;;6.30;99.90;;;;;;5024709;28;20717;-50
2022/11/11 04:29:56;;;;;;;18.20;9.30;;;7.50;99.90;;;;;;5070419;28;20380;-49
2022/11/11 04:32:41;;;;;;;16.05;8.65;;;5.90;99.90;;;;;;5065278;28;20955;-50
2022/11/11 04:35:09;;;;;;;18.88;8.95;;;7.70;99.90;;;;;;5069897;28;20388;-50
2022/11/11 04:37:43;;;;;;;16.98;9.60;;;6.00;99.90;;;;;;5069284;28;20396;-50
2022/11/11 04:42:53;;;;;;;47.20;40.72;;;6.00;99.90;;;;;;5068919;28;20788;-50
2022/11/11 04:45:29;;;;;;;18.80;9.90;;;6.10;99.90;;;;;;5069593;28;20407;-49
2022/11/11 04:48:06;;;;;;;18.88;9.82;;;6.20;99.90;;;;;;5069725;28;20456;-50
2022/11/11 04:50:42;;;;;;;19.48;9.38;;;6.30;85.10;;;;;;5068311;28;20403;-56
2022/11/11 04:53:13;;;;;;;18.08;9.85;;;6.50;65.80;;;;;;5068000;28;20408;-50
2022/11/11 04:58:27;;;;;;;17.03;8.13;;;7.10;25.70;;;;;;5066068;28;20487;-49
2022/11/11 05:00:52;;;;;;;16.10;9.07;;;6.20;25.40;;;;;;5081307;28;20379;-50
2022/11/11 05:03:20;;;;;;;18.40;8.88;;;7.90;26.40;;;;;;5074234;28;20732;-49
2022/11/11 05:09:00;;;;;;;16.75;7.90;;;6.00;13.40;;;;;;5079018;28;20488;-50
2022/11/11 05:11:34;;;;;;;14.50;7.00;;;6.00;3.70;;;;;;5062586;28;20860;-50
2022/11/11 05:22:31;;;;;;;14.07;7.57;;;5.90;1.00;;;;;;5084870;28;20450;-50
2022/11/11 05:27:41;;;;;;;14.88;7.60;;;5.80;1.00;;;;;;5082432;28;20405;-49
2022/11/11 05:30:10;;;;;;;18.40;7.88;;;6.30;1.00;;;;;;5073277;28;20470;-49
2022/11/11 05:32:36;;;;;;;15.23;7.30;;;5.70;29.80;;;;;;5088352;28;20998;-50
2022/11/11 05:35:02;;;;;;;13.30;7.40;;;5.70;47.70;;;;;;5093709;28;20386;-50
2022/11/11 05:37:28;;;;;;;16.95;7.72;;;5.80;29.00;;;;;;5093689;28;20427;-49
2022/11/11 05:39:53;;;;;;;15.38;8.00;;;5.80;28.00;;;;;;5092819;28;20382;-49
2022/11/11 05:42:19;;;;;;;17.07;7.70;;;5.70;33.50;;;;;;5093103;28;20720;-49
2022/11/11 05:44:45;;;;;;;17.73;7.85;;;5.80;68.40;;;;;;5092183;28;20886;-49
2022/11/11 05:47:11;;;;;;;15.13;7.55;;;6.60;69.10;;;;;;5092787;28;20374;-50
2022/11/11 05:49:36;;;;;;;19.23;7.40;;;6.90;91.50;;;;;;5092340;28;20459;-49
2022/11/11 05:52:02;;;;;;;15.00;6.40;;;5.60;99.90;;;;;;5093183;28;20446;-49
2022/11/11 05:54:28;;;;;;;12.77;7.18;;;5.60;99.90;;;;;;5092665;28;20382;-51
2022/11/11 05:56:54;;;;;;;14.82;7.10;;;5.60;99.90;;;;;;5092086;28;20812;-51
2022/11/11 05:59:19;;;;;;;15.23;7.77;;;7.00;99.90;;;;;;5093035;28;20415;-51
2022/11/11 06:01:45;;;;;;;13.88;7.70;;;5.70;99.90;;;;;;5092386;28;20389;-50
2022/11/11 06:04:11;;;;;;;16.55;7.32;;;5.70;88.90;;;;;;5092930;28;20431;-51
2022/11/11 06:06:37;;;;;;;11.97;6.83;;;5.80;99.50;;;;;;5092105;28;20474;-49
2022/11/11 06:09:04;;;;;;;14.05;7.00;;;6.80;71.90;;;;;;5093467;28;20366;-50
2022/11/11 06:11:30;;;;;;;14.35;7.38;;;5.70;47.40;;;;;;5093105;28;20378;-55
2022/11/11 06:13:56;;;;;;;14.50;6.70;;;5.70;39.20;;;;;;5092702;28;20843;-50
2022/11/11 06:16:22;;;;;;;14.88;7.55;;;5.80;81.20;;;;;;5092967;28;20378;-50
2022/11/11 06:18:49;;;;;;;16.17;7.30;;;5.60;66.50;;;;;;5092374;28;20377;-51
2022/11/11 06:21:14;;;;;;;13.73;7.15;;;5.70;85.20;;;;;;5092743;28;20855;-50
2022/11/11 06:23:40;;;;;;;16.63;7.75;;;5.80;91.20;;;;;;5091508;28;20410;-49
2022/11/11 06:26:12;;;;;;;12.83;7.20;;;6.60;61.70;;;;;;5092000;28;20405;-49
2022/11/11 06:28:45;;;;;;;14.07;7.25;;;5.90;45.90;;;;;;5091542;28;20382;-50
2022/11/11 06:31:19;;;;;;;15.00;7.90;;;5.90;30.40;;;;;;5092501;28;20375;-51
2022/11/11 06:33:45;;;;;;;16.70;6.83;;;5.90;28.80;;;;;;5091932;28;20463;-49
2022/11/11 06:36:13;;;;;;;13.90;7.03;;;5.90;38.30;;;;;;5092834;28;20827;-49
2022/11/11 06:38:42;;;;;;;16.17;7.20;;;5.90;15.30;;;;;;5091821;28;20378;-50
2022/11/11 06:41:09;;;;;;;16.67;7.10;;;5.90;1.00;;;;;;5092337;28;20397;-49
2022/11/11 06:43:34;;;;;;;13.17;7.00;;;6.00;1.00;;;;;;5090890;28;20409;-55
2022/11/11 06:46:00;;;;;;;16.02;7.63;;;7.60;1.00;;;;;;5092123;28;20370;-50
2022/11/11 06:48:27;;;;;;;16.13;7.28;;;5.90;1.00;;;;;;5092290;28;20382;-50
2022/11/11 06:50:54;;;;;;;13.35;6.70;;;6.30;1.00;;;;;;5091134;28;20367;-49
2022/11/11 06:53:21;;;;;;;13.68;6.60;;;6.00;1.00;;;;;;5092001;28;20461;-50
2022/11/11 06:55:47;;;;;;;15.30;7.07;;;6.10;1.00;;;;;;5091628;28;20571;-50
2022/11/11 06:58:17;;;;;;;13.82;6.40;;;6.10;1.00;;;;;;5092020;28;20783;-49
2022/11/11 07:00:44;;;;;;;12.82;6.40;;;7.50;1.00;;;;;;5091214;28;20370;-50
2022/11/11 07:03:13;;;;;;;13.23;6.20;;;6.20;1.00;;;;;;5090514;28;20421;-54
2022/11/11 07:05:39;;;;;;;16.05;6.57;;;6.20;1.00;;;;;;5065014;28;20479;-49
2022/11/11 07:08:11;;;;;;;14.15;7.20;;;8.10;1.00;;;;;;5063011;28;20396;-49
2022/11/11 07:10:38;;;;;;;12.18;7.30;;;6.60;1.00;;;;;;5070558;28;20478;-49
2022/11/11 07:13:05;;;;;;;12.10;6.80;;;6.60;1.00;;;;;;5071091;28;20534;-49
2022/11/11 07:15:31;;;;;;;13.55;6.70;;;6.60;1.00;;;;;;5070871;28;20384;-49
2022/11/11 07:17:57;;;;;;;13.80;6.60;;;6.50;1.00;;;;;;5070721;28;20734;-49
2022/11/11 07:20:22;;;;;;;13.85;6.22;;;6.40;1.00;;;;;;5071200;28;20395;-50
2022/11/11 07:22:48;;;;;;;11.93;6.00;;;6.40;1.00;;;;;;5070989;28;20391;-49
2022/11/11 07:25:14;;;;;;;13.25;5.45;;;6.40;1.00;;;;;;5070704;28;20406;-50
2022/11/11 07:27:40;;;;;;;13.60;5.90;;;6.50;1.00;;;;;;5070424;28;20372;-50
2022/11/11 07:30:07;;;;;;;13.82;6.75;;;6.80;1.00;;;;;;5070882;28;20433;-50
2022/11/11 07:32:33;;;;;;;12.80;5.80;;;6.70;1.00;;;;;;5070590;28;20407;-55
2022/11/11 07:34:58;;;;;;;12.63;6.30;;;6.80;1.00;;;;;;5070106;28;20421;-50
2022/11/11 07:37:24;;;;;;;12.40;6.35;;;7.30;1.00;;;;;;5070210;28;20376;-50
2022/11/11 07:39:49;;;;;;;12.23;6.57;;;7.20;1.00;;;;;;5069961;28;20391;-49
2022/11/11 07:42:15;;;;;;;10.68;5.90;;;7.30;1.00;;;;;;5070702;28;20382;-49
2022/11/11 07:44:41;;;;;;;12.40;5.70;;;7.40;1.00;;;;;;5069839;28;20410;-50
2022/11/11 07:47:07;;;;;;;11.45;5.88;;;7.50;1.00;;;;;;5071111;28;20468;-51
2022/11/11 07:49:32;;;;;;;11.10;5.77;;;7.60;1.00;;;;;;5070230;28;20861;-56
2022/11/11 07:51:58;;;;;;;10.95;5.25;;;7.70;99.90;;;;;;5069617;28;21080;-49
2022/11/11 07:54:24;;;;;;;12.43;6.25;;;7.90;99.90;;;;;;5070643;28;20391;-50
2022/11/11 07:56:50;;;;;;;12.57;5.87;;;9.00;99.90;;;;;;5069451;28;20372;-50
2022/11/11 07:59:16;;;;;;;11.75;5.65;;;8.20;99.90;;;;;;5070236;28;20462;-49
2022/11/11 08:01:41;;;;;;;15.18;6.35;;;8.30;1.00;;;;;;5069947;28;20848;-49
2022/11/11 08:04:07;;;;;;;10.77;5.37;;;8.30;1.00;;;;;;5070772;28;20472;-50
2022/11/11 08:06:33;;;;;;;11.50;6.20;;;8.40;1.00;;;;;;5070127;28;20430;-56
2022/11/11 08:08:58;;;;;;;11.03;5.70;;;8.80;1.00;;;;;;5070823;28;20386;-49
2022/11/11 08:14:08;;;;;;;10.73;5.63;;;9.10;99.90;;;;;;5069984;28;20415;-52
2022/11/11 08:16:34;;;;;;;11.68;5.57;;;9.30;99.90;;;;;;5069645;28;20407;-57
2022/11/11 08:19:00;;;;;;;10.40;5.43;;;9.30;1.00;;;;;;5069809;28;20379;-49
2022/11/11 08:21:26;;;;;;;11.43;5.60;;;9.40;15.10;;;;;;5070558;28;20729;-50
2022/11/11 08:23:52;;;;;;;11.70;5.70;;;9.70;1.00;;;;;;5069625;28;20453;-50
2022/11/11 08:26:20;;;;;;;12.32;5.30;;;9.70;99.90;;;;;;5069739;28;20379;-50
2022/11/11 08:28:46;;;;;;;10.80;5.30;;;9.80;99.90;;;;;;5069258;28;20463;-50
2022/11/11 08:31:11;;;;;;;13.47;6.40;;;10.10;61.60;;;;;;5070015;28;20470;-49
2022/11/11 08:33:37;;;;;;;13.20;6.43;;;10.50;1.00;;;;;;5068889;28;20511;-55
2022/11/11 08:36:04;;;;;;;11.63;5.57;;;10.80;99.90;;;;;;5069384;28;20413;-49
2022/11/11 08:38:30;;;;;;;9.70;4.80;;;10.90;93.00;;;;;;5070003;28;20374;-49
2022/11/11 08:40:59;;;;;;;10.55;5.10;;;11.40;1.00;;;;;;5069443;28;20376;-50
2022/11/11 08:43:25;;;;;;;10.93;5.60;;;11.60;1.00;;;;;;5069641;28;20699;-49
2022/11/11 08:45:54;;;;;;;12.87;6.00;;;11.90;99.90;;;;;;5068970;28;20440;-50
2022/11/11 08:48:20;;;;;;;12.45;6.00;;;12.40;99.90;;;;;;5073377;28;20379;-49
2022/11/11 08:50:45;;;;;;;17.67;7.10;;;13.10;99.90;;;;;;5076421;28;20375;-49
2022/11/11 08:53:11;;;;;;;11.25;5.75;;;13.90;1.00;;;;;;5076320;28;20428;-49
2022/11/11 08:55:37;;;;;;;11.70;5.50;;;14.60;1.00;;;;;;5076209;28;20718;-52
2022/11/11 08:58:05;;;;;;;18.38;6.00;;;15.10;1.00;;;;;;5076569;28;20490;-52
2022/11/11 09:00:32;;;;;;;12.75;6.22;;;15.30;1.00;;;;;;5076365;28;20374;-52
2022/11/11 09:03:05;;;;;;;11.90;5.80;;;;;;;;;;5075315;28;20485;-51
2022/11/11 09:05:31;;;;;;;9.73;4.50;;;16.50;1.00;;;;;;5076042;28;20457;-50
2022/11/11 09:08:00;;;;;;;10.98;5.00;;;17.00;1.00;;;;;;5075443;28;20777;-49
2022/11/11 09:10:26;;;;;;;9.30;5.22;;;17.90;99.90;;;;;;5076076;28;20406;-50
2022/11/11 09:12:56;;;;;;;11.33;5.67;;;18.20;99.90;;;;;;5075185;28;20368;-52
2022/11/11 09:15:21;;;;;;;11.50;6.53;;;18.40;99.90;;;;;;5056351;28;20453;-50
2022/11/11 09:17:47;;;;;;;13.90;5.63;;;19.40;99.90;;;;;;5055390;28;20480;-50
2022/11/11 09:20:13;;;;;;;11.00;5.60;;;19.80;99.90;;;;;;5056362;28;20373;-50
2022/11/11 09:22:42;;;;;;;11.60;5.50;;;19.90;99.90;;;;;;5055757;28;20400;-50
2022/11/11 09:25:08;;;;;;;12.48;5.53;;;19.40;99.90;;;;;;5056145;28;20481;-50
2022/11/11 09:27:34;;;;;;;13.48;5.80;;;19.00;99.90;;;;;;5055751;28;20951;-57
2022/11/11 09:30:00;;;;;;;12.60;5.93;;;;;;;;;;5056500;28;20405;-50
2022/11/11 09:32:26;;;;;;;12.70;5.50;;;18.90;99.90;;;;;;5055566;28;20428;-50
2022/11/11 09:34:54;;;;;;;15.07;6.20;;;19.10;99.90;;;;;;5055288;28;20923;-50
2022/11/11 09:37:19;;;;;;;13.50;5.57;;;19.10;99.90;;;;;;5055691;28;20387;-50
2022/11/11 09:39:45;;;;;;;16.17;6.10;;;18.20;99.90;;;;;;5054662;28;20460;-50
2022/11/11 09:42:52;;;;;;;12.90;5.43;;;18.00;99.90;;;;;;5055814;28;20412;-50
2022/11/11 09:45:32;;;;;;;10.77;5.57;;;19.00;99.90;;;;;;5055991;28;20484;-51
2022/11/11 09:48:19;;;;;;;11.55;5.90;;;18.90;99.90;;;;;;5055828;28;20380;-50
2022/11/11 09:50:53;;;;;;;14.77;6.60;;;18.30;99.90;;;;;;5055319;28;20385;-50
2022/11/11 09:53:34;;;;;;;9.50;5.10;;;17.50;99.90;;;;;;5055877;28;20500;-50
2022/11/11 09:56:14;;;;;;;10.40;6.07;;;18.20;99.90;;;;;;5055249;28;20379;-50
2022/11/11 09:58:45;;;;;;;11.90;5.60;;;18.50;99.90;;;;;;5054833;28;20874;-55
2022/11/11 10:01:19;;;;;;;12.70;6.18;;;18.70;99.90;;;;;;5051844;28;20435;-51
2022/11/11 10:03:58;;;;;;;15.65;6.32;;;19.10;99.90;;;;;;5051276;28;20914;-50
2022/11/11 10:06:30;;;;;;;10.55;5.60;;;19.50;99.90;;;;;;5052045;28;20950;-50
2022/11/11 10:09:05;;;;;;;12.85;6.47;;;19.00;99.90;;;;;;5051185;28;20386;-50
2022/11/11 10:11:43;;;;;;;11.18;6.20;;;19.10;99.90;;;;;;5052629;28;20464;-50
2022/11/11 10:14:09;;;;;;;12.33;6.23;;;19.20;99.90;;;;;;5063374;28;20384;-50
2022/11/11 10:16:57;;;;;;;10.18;5.25;;;19.70;99.90;;;;;;5072315;28;20371;-50
2022/11/11 10:19:29;;;;;;;10.15;5.80;;;19.50;99.90;;;;;;5072599;28;20465;-50
2022/11/11 10:22:01;;;;;;;12.25;5.80;;;18.90;99.90;;;;;;5071787;28;20467;-51
2022/11/11 10:24:34;;;;;;;12.13;5.57;;;18.70;99.90;;;;;;5071421;28;20403;-52
2022/11/11 10:27:04;;;;;;;10.00;5.10;;;18.60;99.90;;;;;;5072046;28;20387;-50
2022/11/11 10:29:43;;;;;;;11.13;5.50;;;18.60;99.90;;;;;;5072048;28;20429;-50
2022/11/11 10:32:22;;;;;;;10.90;5.45;;;17.90;99.90;;;;;;5072001;28;20391;-50
2022/11/11 10:34:48;;;;;;;14.05;6.13;;;17.70;99.90;;;;;;5072047;28;20430;-50
2022/11/11 10:37:21;;;;;;;13.40;6.20;;;17.70;99.90;;;;;;5071436;28;20382;-51
2022/11/11 10:39:57;;;;;;;10.65;5.47;;;17.80;99.90;;;;;;5071340;28;20368;-50
2022/11/11 10:42:23;;;;;;;11.18;5.90;;;17.90;99.90;;;;;;5071768;28;20846;-50
2022/11/11 10:44:50;;;;;;;12.17;5.70;;;18.30;99.90;;;;;;5071669;28;20407;-50
2022/11/11 10:47:44;;;;;;;9.82;5.20;;;18.40;99.90;;;;;;5071703;28;20462;-51
2022/11/11 10:50:20;;;;;;;12.57;5.50;;;19.00;99.90;;;;;;5071628;28;20386;-50
2022/11/11 10:53:12;;;;;;;9.05;4.68;;;18.70;99.90;;;;;;5070704;28;20729;-50
2022/11/11 10:55:58;;;;;;;10.40;4.47;;;18.00;99.90;;;;;;5071210;28;20471;-56
2022/11/11 10:58:35;;;;;;;10.52;5.40;;;18.00;99.90;;;;;;5071052;28;20441;-50
2022/11/11 11:01:05;;;;;;;10.48;5.25;;;18.00;99.90;;;;;;5070719;28;20387;-50
2022/11/11 11:03:35;;;;;;;11.85;5.28;;;18.00;99.90;;;;;;5070875;28;20393;-50
2022/11/11 11:06:07;;;;;;;11.93;4.70;;;18.20;99.90;;;;;;5070997;28;20384;-50
2022/11/11 11:08:43;;;;;;;12.77;5.20;;;18.00;99.90;;;;;;5071282;28;20399;-50
2022/11/11 11:11:23;;;;;;;10.27;5.33;;;17.50;99.90;;;;;;5070792;28;20432;-50
2022/11/11 11:13:54;;;;;;;10.57;5.18;;;16.90;99.90;;;;;;5070026;28;20392;-50
2022/11/11 11:16:24;;;;;;;12.63;5.50;;;16.50;99.90;;;;;;5071243;28;20433;-50
2022/11/11 11:19:25;;;;;;;13.60;5.47;;;15.80;99.90;;;;;;5052595;28;20937;-49
2022/11/11 11:21:59;;;;;;;11.80;5.30;;;15.60;99.90;;;;;;5070580;28;20387;-50
2022/11/11 11:24:25;;;;;;;10.32;5.00;;;15.00;99.90;;;;;;5071081;28;20461;-50
2022/11/11 11:26:54;;;;;;;13.70;5.60;;;15.80;99.90;;;;;;5070363;28;20864;-50
2022/11/11 11:29:38;;;;;;;10.25;4.90;;;16.00;99.90;;;;;;5070822;28;20458;-50
2022/11/11 11:32:27;;;;;;;11.75;5.20;;;15.70;99.90;;;;;;5070489;28;20394;-50
2022/11/11 11:34:54;;;;;;;11.40;4.75;;;15.70;99.90;;;;;;5069670;28;20858;-50
2022/11/11 11:37:23;;;;;;;12.90;5.78;;;15.60;99.90;;;;;;5070728;28;20378;-50
2022/11/11 11:40:00;;;;;;;12.68;4.90;;;15.70;99.90;;;;;;5070035;28;20400;-50
2022/11/11 11:42:34;;;;;;;13.05;5.40;;;15.70;99.90;;;;;;5070475;28;20391;-50
2022/11/11 11:45:22;;;;;;;10.90;5.30;;;15.80;99.90;;;;;;5069805;28;20502;-50
2022/11/11 11:48:08;;;;;;;13.18;5.68;;;15.60;99.90;;;;;;5069681;28;20383;-50
2022/11/11 11:50:50;;;;;;;10.82;4.93;;;15.70;99.90;;;;;;5070478;28;20445;-50
2022/11/11 11:53:34;;;;;;;9.50;5.05;;;15.80;99.90;;;;;;5070203;28;20387;-50
2022/11/11 11:56:18;;;;;;;11.23;5.25;;;16.00;99.90;;;;;;5068982;28;20777;-50
2022/11/11 11:59:05;;;;;;;13.65;5.40;;;16.00;99.90;;;;;;5069391;28;20380;-50
2022/11/11 12:01:55;;;;;;;13.10;5.60;;;16.20;99.90;;;;;;5070370;28;20376;-50
2022/11/11 12:04:41;;;;;;;10.40;4.70;;;16.90;99.90;;;;;;5069927;28;20407;-50
2022/11/11 12:07:21;;;;;;;11.07;4.88;;;16.50;99.90;;;;;;5070629;28;20731;-50
2022/11/11 12:10:11;;;;;;;13.88;7.30;;;16.40;99.90;;;;;;5069308;28;20437;-53
2022/11/11 12:13:06;;;;;;;13.57;5.95;;;16.70;99.90;;;;;;5069716;28;20476;-56
2022/11/11 12:15:47;;;;;;;18.30;6.95;;;16.70;99.90;;;;;;5040380;28;20717;-51
2022/11/11 12:18:43;;;;;;;11.23;5.47;;;17.10;99.90;;;;;;5050039;28;20474;-50
2022/11/11 12:21:12;;;;;;;13.20;5.57;;;17.10;99.90;;;;;;5050457;28;20392;-50
2022/11/11 12:23:49;;;;;;;10.60;5.60;;;16.90;99.90;;;;;;5049207;28;20389;-56
2022/11/11 12:26:26;;;;;;;10.93;5.50;;;16.90;99.90;;;;;;5049901;28;20472;-51
2022/11/11 12:29:07;;;;;;;10.13;5.10;;;16.80;99.90;;;;;;5049272;28;20883;-50
2022/11/11 12:31:35;;;;;;;15.60;5.78;;;16.80;99.90;;;;;;5049421;28;20464;-51
2022/11/11 12:34:11;;;;;;;12.00;4.90;;;17.00;99.90;;;;;;5049274;28;20428;-50
2022/11/11 12:36:56;;;;;;;10.20;4.50;;;17.10;99.90;;;;;;5049801;28;20388;-51
2022/11/11 12:39:55;;;;;;;10.57;4.90;;;16.60;99.90;;;;;;5049647;28;20386;-51
2022/11/11 12:42:40;;;;;;;10.77;4.80;;;16.60;99.90;;;;;;5049452;28;20401;-51
2022/11/11 12:45:08;;;;;;;9.70;4.70;;;16.70;99.90;;;;;;5049574;28;20479;-50
2022/11/11 12:48:17;;;;;;;11.82;5.50;;;16.70;99.90;;;;;;5049636;28;20385;-51
2022/11/11 12:50:52;;;;;;;11.90;5.05;;;16.80;99.90;;;;;;5048341;28;20378;-54
2022/11/11 12:53:37;;;;;;;10.57;4.60;;;16.90;99.90;;;;;;5050078;28;20476;-50
2022/11/11 12:56:28;;;;;;;9.82;4.10;;;16.80;99.90;;;;;;5049461;28;20851;-50
2022/11/11 12:59:25;;;;;;;9.00;3.85;;;16.80;99.90;;;;;;5048738;28;20385;-53
2022/11/11 13:02:09;;;;;;;9.50;3.63;;;16.80;99.90;;;;;;5049518;28;20396;-50
2022/11/11 13:05:06;;;;;;;9.50;3.60;;;16.60;99.90;;;;;;5048920;28;20779;-51
2022/11/11 13:07:50;;;;;;;10.48;4.05;;;16.50;99.90;;;;;;5018582;28;20723;-50
2022/11/11 13:10:46;;;;;;;8.23;3.88;;;16.40;99.90;;;;;;5049910;28;20385;-51
2022/11/11 13:13:49;;;;;;;9.70;4.40;;;16.60;99.90;;;;;;5052121;28;20386;-52
2022/11/11 13:16:20;;;;;;;10.48;4.97;;;16.50;99.90;;;;;;5052370;28;20399;-51
2022/11/11 13:19:13;;;;;;;9.13;4.40;;;16.50;99.90;;;;;;5069143;28;20784;-51
2022/11/11 13:22:08;;;;;;;10.55;4.97;;;16.50;99.90;;;;;;5069125;28;20835;-55
2022/11/11 13:24:34;;;;;;;9.40;4.50;;;16.50;99.90;;;;;;5038135;28;20403;-51
2022/11/11 13:27:04;;;;;;;12.27;4.27;;;16.60;99.90;;;;;;5068636;28;20376;-53
2022/11/11 13:30:11;;;;;;;10.20;4.07;;;16.80;99.90;;;;;;5068870;28;20767;-51
2022/11/11 13:33:00;;;;;;;10.85;4.43;;;16.90;99.90;;;;;;5069782;28;20423;-51
2022/11/11 13:35:28;;;;;;;11.23;4.55;;;17.00;99.90;;;;;;5071072;28;20415;-50
2022/11/11 13:37:54;;;;;;;7.90;3.70;;;17.00;99.90;;;;;;5072494;28;20388;-51
2022/11/11 13:40:38;;;;;;;10.00;4.00;;;17.00;99.90;;;;;;5072796;28;20868;-51
2022/11/11 13:43:13;;;;;;;8.43;3.50;;;17.00;99.90;;;;;;5071894;28;20376;-51
2022/11/11 13:45:42;;;;;;;11.40;3.67;;;16.90;99.90;;;;;;5072144;28;20445;-56
2022/11/11 13:48:22;;;;;;;9.48;3.63;;;16.80;99.90;;;;;;5072625;28;20851;-51
2022/11/11 13:50:47;;;;;;;8.70;3.60;;;16.60;99.90;;;;;;5071507;28;20379;-52
2022/11/11 13:53:27;;;;;;;9.48;3.40;;;16.40;99.90;;;;;;5072776;28;20375;-51
2022/11/11 13:56:01;;;;;;;10.02;4.28;;;16.40;99.90;;;;;;5071917;28;20380;-51
2022/11/11 13:58:31;;;;;;;11.50;4.28;;;16.50;99.90;;;;;;5073048;28;20838;-51
2022/11/11 14:01:04;;;;;;;9.70;4.30;;;16.60;99.90;;;;;;5072131;28;20383;-51
2022/11/11 14:03:36;;;;;;;10.77;4.10;;;16.50;99.90;;;;;;5072004;28;20379;-51
2022/11/11 14:06:14;;;;;;;13.23;5.68;;;16.50;99.90;;;;;;5071871;28;20376;-53
2022/11/11 14:08:49;;;;;;;11.18;4.90;;;16.60;99.90;;;;;;5071522;28;20376;-58
2022/11/11 14:11:24;;;;;;;13.52;5.20;;;16.50;99.90;;;;;;5072373;28;20379;-51
2022/11/11 14:13:53;;;;;;;12.25;5.10;;;16.50;99.90;;;;;;5071691;28;20388;-51
2022/11/11 14:16:34;;;;;;;13.88;5.82;;;16.40;99.90;;;;;;5054760;28;20372;-51